createdAt,value
2017-02-26T00:00:52.232Z,54.27
2017-02-26T00:01:52.198Z,54.37
2017-02-26T00:02:52.183Z,54.55
2017-02-26T00:03:52.188Z,55.31
2017-02-26T00:04:52.156Z,55.79
2017-02-26T00:05:52.156Z,56.63
2017-02-26T00:06:52.118Z,57.11
2017-02-26T00:07:52.123Z,57.68
2017-02-26T00:08:52.102Z,58.15
2017-02-26T00:09:52.076Z,58.62
2017-02-26T00:10:52.071Z,59
2017-02-26T00:11:52.058Z,59.57
2017-02-26T00:12:52.038Z,59.85
2017-02-26T00:13:52.011Z,60.45
2017-02-26T00:14:52.022Z,60.83
2017-02-26T00:15:51.998Z,61.46
2017-02-26T00:16:51.977Z,62.15
2017-02-26T00:17:51.974Z,62.78
2017-02-26T00:18:51.940Z,62.91
2017-02-26T00:19:51.940Z,63.95
2017-02-26T00:20:51.903Z,64.29
2017-02-26T00:21:51.887Z,64.29
2017-02-26T00:22:51.881Z,64.77
2017-02-26T00:23:51.863Z,65.53
2017-02-26T00:24:51.838Z,65.53
2017-02-26T00:25:51.818Z,65.94
2017-02-26T00:26:51.821Z,66.09
2017-02-26T00:27:51.403Z,66.88
2017-02-26T00:28:51.775Z,67.17
2017-02-26T00:29:51.758Z,67.93
2017-02-26T00:30:51.765Z,68.3
2017-02-26T00:31:51.735Z,68.59
2017-02-26T00:32:51.725Z,69.34
2017-02-26T00:33:51.697Z,69.72
2017-02-26T00:34:51.690Z,70.1
2017-02-26T00:35:51.658Z,70.2
2017-02-26T00:36:51.271Z,70.95
2017-02-26T00:37:51.639Z,71.8
2017-02-26T00:38:51.627Z,71.8
2017-02-26T00:39:51.599Z,72.47
2017-02-26T00:40:51.595Z,72.37
2017-02-26T00:41:51.565Z,72.94
2017-02-26T00:42:51.553Z,73.88
2017-02-26T00:43:51.532Z,73.79
2017-02-26T00:44:51.524Z,74.36
2017-02-26T00:45:51.511Z,75.02
2017-02-26T00:46:51.485Z,75.26
2017-02-26T00:47:51.483Z,75.78
2017-02-26T00:48:51.470Z,76.06
2017-02-26T00:49:51.461Z,76.53
2017-02-26T00:50:51.418Z,77.15
2017-02-26T00:51:51.407Z,78.01
2017-02-26T00:52:51.388Z,78.39
2017-02-26T00:53:51.384Z,79.05
2017-02-26T00:54:51.359Z,79.05
2017-02-26T00:55:51.355Z,79.71
2017-02-26T00:56:51.339Z,79.61
2017-02-26T00:57:51.324Z,79.99
2017-02-26T00:58:51.302Z,80.27
2017-02-26T00:59:51.292Z,79.9
2017-02-26T01:00:51.259Z,80.08
2017-02-26T01:01:51.254Z,80.46
2017-02-26T01:02:51.243Z,80.37
2017-02-26T01:03:51.215Z,80.37
2017-02-26T01:04:51.209Z,80.84
2017-02-26T01:05:51.194Z,80.94
2017-02-26T01:06:51.178Z,81.13
2017-02-26T01:07:51.170Z,81.03
2017-02-26T01:08:51.133Z,81.6
2017-02-26T01:09:51.120Z,81.41
2017-02-26T01:10:51.101Z,81.6
2017-02-26T01:11:51.082Z,82.17
2017-02-26T01:12:51.079Z,81.98
2017-02-26T01:13:50.669Z,82.35
2017-02-26T01:14:51.042Z,82.73
2017-02-26T01:15:51.030Z,83.11
2017-02-26T01:16:50.997Z,83.21
2017-02-26T01:17:50.992Z,83.4
2017-02-26T01:18:50.980Z,83.59
2017-02-26T01:19:50.954Z,83.3
2017-02-26T01:20:50.940Z,83.97
2017-02-26T01:21:50.938Z,83.78
2017-02-26T01:22:50.914Z,84.16
2017-02-26T01:23:50.888Z,83.97
2017-02-26T01:24:50.869Z,84.06
2017-02-26T01:25:50.857Z,84.34
2017-02-26T01:26:50.844Z,84.53
2017-02-26T01:27:50.829Z,84.44
2017-02-26T01:28:50.801Z,84.91
2017-02-26T01:29:50.812Z,84.63
2017-02-26T01:30:50.784Z,84.91
2017-02-26T01:31:50.758Z,84.72
2017-02-26T01:32:50.754Z,85.19
2017-02-26T01:33:50.719Z,85.24
2017-02-26T01:34:50.717Z,85.66
2017-02-26T01:35:50.699Z,85.33
2017-02-26T01:36:50.687Z,85.9
2017-02-26T01:37:50.666Z,85.8
2017-02-26T01:38:50.643Z,85.8
2017-02-26T01:39:50.641Z,86.18
2017-02-26T01:40:50.614Z,85.99
2017-02-26T01:41:50.595Z,86.75
2017-02-26T01:42:50.197Z,86.47
2017-02-26T01:43:50.564Z,87.32
2017-02-26T01:44:50.558Z,87.79
2017-02-26T01:45:50.537Z,87.41
2017-02-26T01:46:50.508Z,87.7
2017-02-26T01:47:50.523Z,87.98
2017-02-26T01:48:50.494Z,87.7
2017-02-26T01:49:50.487Z,88.17
2017-02-26T01:50:50.473Z,88.26
2017-02-26T01:51:50.432Z,88.36
2017-02-26T01:52:50.429Z,88.64
2017-02-26T01:53:50.409Z,89.02
2017-02-26T01:54:50.431Z,88.93
2017-02-26T01:55:50.369Z,89.02
2017-02-26T01:56:50.349Z,89.4
2017-02-26T01:57:50.343Z,89.12
2017-02-26T01:58:50.335Z,89.59
2017-02-26T01:59:50.302Z,89.69
2017-02-26T02:00:50.310Z,89.97
2017-02-26T02:01:50.273Z,90.44
2017-02-26T02:02:50.259Z,90.34
2017-02-26T02:03:50.249Z,90.06
2017-02-26T02:04:50.240Z,90.53
2017-02-26T02:05:50.226Z,90.34
2017-02-26T02:06:50.200Z,90.91
2017-02-26T02:07:50.180Z,90.91
2017-02-26T02:08:50.189Z,91.01
2017-02-26T02:09:50.146Z,91.39
2017-02-26T02:10:50.123Z,91.58
2017-02-26T02:11:50.128Z,92.05
2017-02-26T02:12:50.098Z,91.96
2017-02-26T02:13:50.097Z,91.77
2017-02-26T02:14:50.081Z,92.05
2017-02-26T02:15:50.051Z,92.33
2017-02-26T02:16:50.048Z,92.33
2017-02-26T02:17:50.027Z,92.61
2017-02-26T02:18:50.014Z,92.61
2017-02-26T02:19:50.009Z,92.61
2017-02-26T02:20:49.971Z,92.71
2017-02-26T02:21:49.964Z,93.37
2017-02-26T02:22:49.941Z,93.28
2017-02-26T02:23:49.924Z,93.66
2017-02-26T02:24:49.910Z,93.85
2017-02-26T02:25:49.906Z,93.28
2017-02-26T02:26:49.895Z,93.47
2017-02-26T02:27:49.482Z,93.37
2017-02-26T02:28:49.854Z,93.56
2017-02-26T02:29:49.824Z,93.75
2017-02-26T02:30:49.832Z,94.23
2017-02-26T02:31:49.793Z,94.13
2017-02-26T02:32:49.774Z,94.6
2017-02-26T02:33:49.787Z,94.23
2017-02-26T02:34:49.743Z,94.89
2017-02-26T02:35:49.740Z,94.51
2017-02-26T02:36:49.727Z,94.51
2017-02-26T02:37:49.705Z,94.89
2017-02-26T02:38:49.692Z,94.32
2017-02-26T02:39:49.672Z,94.79
2017-02-26T02:40:49.653Z,95.07
2017-02-26T02:41:49.645Z,94.51
2017-02-26T02:42:49.619Z,94.89
2017-02-26T02:43:49.624Z,94.7
2017-02-26T02:44:49.601Z,94.6
2017-02-26T02:45:49.582Z,94.79
2017-02-26T02:46:49.170Z,94.89
2017-02-26T02:47:49.550Z,95.26
2017-02-26T02:48:49.523Z,95.07
2017-02-26T02:49:49.527Z,94.98
2017-02-26T02:50:49.496Z,95.36
2017-02-26T02:51:49.475Z,95.17
2017-02-26T02:52:49.473Z,95.45
2017-02-26T02:53:49.457Z,95.36
2017-02-26T02:54:49.450Z,95.26
2017-02-26T02:55:49.416Z,95.83
2017-02-26T02:56:49.420Z,95.93
2017-02-26T02:57:49.393Z,96.02
2017-02-26T02:58:49.383Z,95.83
2017-02-26T02:59:49.368Z,95.83
2017-02-26T03:00:49.353Z,96.31
2017-02-26T03:01:49.331Z,96.21
2017-02-26T03:02:49.330Z,96.12
2017-02-26T03:03:49.302Z,96.21
2017-02-26T03:04:49.288Z,96.59
2017-02-26T03:05:49.270Z,96.69
2017-02-26T03:06:49.254Z,96.78
2017-02-26T03:07:49.232Z,96.59
2017-02-26T03:08:49.216Z,97.25
2017-02-26T03:09:49.209Z,96.97
2017-02-26T03:10:49.184Z,96.88
2017-02-26T03:11:49.184Z,96.97
2017-02-26T03:12:49.167Z,97.06
2017-02-26T03:13:49.159Z,97.25
2017-02-26T03:14:49.124Z,97.06
2017-02-26T03:15:49.105Z,97.06
2017-02-26T03:16:49.107Z,97.63
2017-02-26T03:17:49.090Z,97.53
2017-02-26T03:18:49.071Z,97.44
2017-02-26T03:19:49.057Z,97.72
2017-02-26T03:20:49.035Z,97.72
2017-02-26T03:21:49.040Z,97.91
2017-02-26T03:22:48.999Z,98.1
2017-02-26T03:24:02.627Z,97.91
2017-02-26T03:24:48.965Z,98.48
2017-02-26T03:25:48.956Z,98.39
2017-02-26T03:26:48.949Z,98.1
2017-02-26T03:27:48.924Z,98.2
2017-02-26T03:28:49.111Z,98.29
2017-02-26T03:29:48.903Z,98.2
2017-02-26T03:30:48.882Z,98.29
2017-02-26T03:31:48.860Z,98.39
2017-02-26T03:32:48.858Z,98.77
2017-02-26T03:33:48.842Z,98.77
2017-02-26T03:34:48.826Z,98.48
2017-02-26T03:35:48.810Z,98.86
2017-02-26T03:36:48.791Z,98.77
2017-02-26T03:37:48.786Z,99.33
2017-02-26T03:38:48.750Z,99.33
2017-02-26T03:39:48.747Z,99.24
2017-02-26T03:40:48.724Z,99.15
2017-02-26T03:41:48.733Z,99.24
2017-02-26T03:42:48.700Z,99.24
2017-02-26T03:43:48.671Z,99.24
2017-02-26T03:44:48.682Z,99.15
2017-02-26T03:45:48.653Z,99.33
2017-02-26T03:46:48.633Z,99.05
2017-02-26T03:47:48.606Z,99.33
2017-02-26T03:48:48.616Z,98.96
2017-02-26T03:49:48.598Z,99.05
2017-02-26T03:50:48.561Z,99.62
2017-02-26T03:51:48.579Z,99.43
2017-02-26T03:52:48.529Z,99.43
2017-02-26T03:53:48.531Z,99.8
2017-02-26T03:54:48.502Z,99.33
2017-02-26T03:55:48.502Z,99.43
2017-02-26T03:56:48.478Z,99.43
2017-02-26T03:57:48.450Z,99.99
2017-02-26T03:58:48.637Z,99.99
2017-02-26T04:00:01.817Z,99.99
2017-02-26T04:00:48.424Z,99.99
2017-02-26T04:01:48.397Z,99.99
2017-02-26T04:02:48.384Z,99.99
2017-02-26T04:03:48.380Z,99.99
2017-02-26T04:04:48.348Z,99.99
2017-02-26T04:05:47.943Z,99.99
2017-02-26T04:06:48.333Z,99.99
2017-02-26T04:07:48.310Z,99.99
2017-02-26T04:08:48.293Z,99.99
2017-02-26T04:09:48.267Z,99.99
2017-02-26T04:10:48.246Z,99.99
2017-02-26T04:11:48.248Z,99.99
2017-02-26T04:12:48.230Z,99.99
2017-02-26T04:13:48.220Z,99.99
2017-02-26T04:14:48.199Z,99.99
2017-02-26T04:15:48.190Z,99.99
2017-02-26T04:16:48.168Z,99.99
2017-02-26T04:17:48.140Z,99.99
2017-02-26T04:18:48.131Z,99.99
2017-02-26T04:19:48.109Z,99.99
2017-02-26T04:20:48.104Z,99.99
2017-02-26T04:21:48.085Z,99.99
2017-02-26T04:22:48.056Z,99.99
2017-02-26T04:23:48.050Z,99.99
2017-02-26T04:24:48.038Z,99.99
2017-02-26T04:25:48.009Z,99.99
2017-02-26T04:26:47.991Z,99.99
2017-02-26T04:27:48.183Z,99.99
2017-02-26T04:28:47.978Z,99.99
2017-02-26T04:29:47.955Z,99.99
2017-02-26T04:30:47.941Z,99.99
2017-02-26T04:31:47.923Z,99.99
2017-02-26T04:32:47.916Z,99.99
2017-02-26T04:33:47.708Z,99.99
2017-02-26T04:34:48.089Z,99.99
2017-02-26T04:35:47.489Z,99.99
2017-02-26T04:36:47.854Z,99.99
2017-02-26T04:37:47.828Z,99.99
2017-02-26T04:38:47.801Z,99.99
2017-02-26T04:39:48.012Z,99.99
2017-02-26T04:40:47.769Z,99.99
2017-02-26T04:41:47.749Z,99.99
2017-02-26T04:42:47.744Z,99.99
2017-02-26T04:43:47.741Z,99.99
2017-02-26T04:44:47.711Z,99.99
2017-02-26T04:45:47.702Z,99.99
2017-02-26T04:46:47.672Z,99.99
2017-02-26T04:47:47.665Z,99.99
2017-02-26T04:48:47.637Z,99.99
2017-02-26T04:49:47.621Z,99.99
2017-02-26T04:50:47.608Z,99.99
2017-02-26T04:51:47.604Z,99.99
2017-02-26T04:52:47.587Z,99.99
2017-02-26T04:53:47.572Z,99.99
2017-02-26T04:54:47.553Z,99.99
2017-02-26T04:55:47.528Z,99.99
2017-02-26T04:56:47.523Z,99.99
2017-02-26T04:57:47.504Z,99.99
2017-02-26T04:58:47.487Z,99.99
2017-02-26T04:59:47.460Z,99.99
2017-02-26T05:00:47.466Z,99.99
2017-02-26T05:01:47.441Z,99.99
2017-02-26T05:02:47.613Z,99.99
2017-02-26T05:03:47.407Z,99.99
2017-02-26T05:04:47.383Z,99.99
2017-02-26T05:05:47.367Z,99.99
2017-02-26T05:06:47.358Z,99.99
2017-02-26T05:07:47.337Z,99.99
2017-02-26T05:08:47.328Z,99.99
2017-02-26T05:09:47.311Z,99.99
2017-02-26T05:10:47.287Z,99.99
2017-02-26T05:11:47.274Z,99.99
2017-02-26T05:12:47.253Z,99.99
2017-02-26T05:13:47.246Z,99.99
2017-02-26T05:14:47.235Z,99.99
2017-02-26T05:15:47.418Z,99.99
2017-02-26T05:16:47.203Z,99.99
2017-02-26T05:17:47.181Z,99.99
2017-02-26T05:18:47.167Z,99.99
2017-02-26T05:19:47.144Z,99.99
2017-02-26T05:20:47.138Z,99.99
2017-02-26T05:21:47.123Z,99.99
2017-02-26T05:22:47.105Z,99.99
2017-02-26T05:23:47.086Z,99.99
2017-02-26T05:24:47.074Z,99.99
2017-02-26T05:25:47.059Z,99.99
2017-02-26T05:26:47.043Z,99.99
2017-02-26T05:27:47.018Z,99.99
2017-02-26T05:28:47.011Z,99.99
2017-02-26T05:29:46.982Z,99.99
2017-02-26T05:30:46.971Z,99.99
2017-02-26T05:31:46.961Z,99.99
2017-02-26T05:32:46.929Z,99.99
2017-02-26T05:33:46.913Z,99.99
2017-02-26T05:34:46.908Z,99.99
2017-02-26T05:35:46.905Z,99.99
2017-02-26T05:36:46.880Z,99.99
2017-02-26T05:37:46.848Z,99.99
2017-02-26T05:38:46.847Z,99.99
2017-02-26T05:39:46.822Z,99.99
2017-02-26T05:40:46.808Z,99.99
2017-02-26T05:41:46.800Z,99.99
2017-02-26T05:42:46.771Z,99.99
2017-02-26T05:43:46.766Z,99.99
2017-02-26T05:44:46.748Z,99.99
2017-02-26T05:45:46.724Z,99.99
2017-02-26T05:46:46.714Z,99.99
2017-02-26T05:47:46.696Z,99.99
2017-02-26T05:48:46.683Z,99.99
2017-02-26T05:49:46.670Z,99.99
2017-02-26T05:50:46.650Z,99.99
2017-02-26T05:51:46.627Z,99.99
2017-02-26T05:52:46.617Z,99.99
2017-02-26T05:53:46.604Z,99.99
2017-02-26T05:54:46.583Z,99.99
2017-02-26T05:55:46.574Z,99.99
2017-02-26T05:56:46.557Z,99.99
2017-02-26T05:57:46.550Z,99.99
2017-02-26T05:58:46.525Z,99.99
2017-02-26T05:59:46.511Z,99.99
2017-02-26T06:00:46.488Z,99.99
2017-02-26T06:01:46.504Z,99.99
2017-02-26T06:02:46.443Z,99.99
2017-02-26T06:03:46.053Z,99.99
2017-02-26T06:04:46.413Z,99.99
2017-02-26T06:05:46.407Z,99.99
2017-02-26T06:06:46.395Z,99.99
2017-02-26T06:07:46.365Z,99.99
2017-02-26T06:08:46.364Z,99.99
2017-02-26T06:09:46.335Z,99.99
2017-02-26T06:10:46.328Z,99.99
2017-02-26T06:11:46.301Z,99.99
2017-02-26T06:12:46.298Z,99.99
2017-02-26T06:13:46.278Z,99.99
2017-02-26T06:14:46.263Z,99.99
2017-02-26T06:15:46.264Z,99.99
2017-02-26T06:16:46.219Z,99.99
2017-02-26T06:17:46.231Z,99.99
2017-02-26T06:18:46.196Z,99.99
2017-02-26T06:19:46.174Z,99.99
2017-02-26T06:20:46.161Z,99.99
2017-02-26T06:21:46.163Z,99.99
2017-02-26T06:22:46.126Z,99.99
2017-02-26T06:23:46.107Z,99.99
2017-02-26T06:24:46.095Z,99.99
2017-02-26T06:25:46.081Z,99.99
2017-02-26T06:26:46.062Z,99.99
2017-02-26T06:27:46.056Z,99.99
2017-02-26T06:28:46.043Z,99.99
2017-02-26T06:29:46.010Z,99.99
2017-02-26T06:30:46.000Z,99.99
2017-02-26T06:31:45.984Z,99.99
2017-02-26T06:32:45.979Z,99.99
2017-02-26T06:33:45.947Z,99.99
2017-02-26T06:34:45.929Z,99.99
2017-02-26T06:35:45.950Z,99.99
2017-02-26T06:36:45.914Z,99.99
2017-02-26T06:37:45.901Z,99.99
2017-02-26T06:38:45.883Z,99.99
2017-02-26T06:39:45.883Z,99.99
2017-02-26T06:40:45.847Z,99.99
2017-02-26T06:41:45.439Z,99.99
2017-02-26T06:42:45.429Z,99.99
2017-02-26T06:43:45.423Z,99.99
2017-02-26T06:44:45.783Z,99.99
2017-02-26T06:45:45.754Z,99.99
2017-02-26T06:46:45.375Z,99.99
2017-02-26T06:47:45.728Z,99.99
2017-02-26T06:48:45.713Z,99.99
2017-02-26T06:49:45.703Z,99.99
2017-02-26T06:50:45.692Z,99.99
2017-02-26T06:51:45.662Z,99.99
2017-02-26T06:52:45.660Z,99.99
2017-02-26T06:53:45.647Z,99.99
2017-02-26T06:54:45.617Z,99.99
2017-02-26T06:55:45.597Z,99.99
2017-02-26T06:56:45.596Z,99.99
2017-02-26T06:57:45.221Z,99.99
2017-02-26T06:58:45.563Z,99.99
2017-02-26T06:59:45.544Z,99.99
2017-02-26T07:00:45.534Z,99.99
2017-02-26T07:01:45.513Z,99.99
2017-02-26T07:02:45.493Z,99.99
2017-02-26T07:03:45.495Z,99.99
2017-02-26T07:04:45.454Z,99.99
2017-02-26T07:05:45.448Z,99.99
2017-02-26T07:06:45.420Z,99.99
2017-02-26T07:07:45.415Z,99.62
2017-02-26T07:08:45.399Z,99.99
2017-02-26T07:09:45.378Z,99.99
2017-02-26T07:10:45.366Z,99.99
2017-02-26T07:11:45.352Z,99.85
2017-02-26T07:12:45.344Z,99.99
2017-02-26T07:13:45.325Z,99.99
2017-02-26T07:14:45.292Z,99.99
2017-02-26T07:15:45.292Z,99.99
2017-02-26T07:16:44.889Z,99.99
2017-02-26T07:17:44.863Z,99.99
2017-02-26T07:18:45.243Z,99.99
2017-02-26T07:19:44.844Z,99.99
2017-02-26T07:20:44.816Z,99.99
2017-02-26T07:21:45.194Z,99.99
2017-02-26T07:22:45.187Z,99.99
2017-02-26T07:23:45.169Z,99.85
2017-02-26T07:24:45.171Z,99.76
2017-02-26T07:25:45.121Z,99.57
2017-02-26T07:26:45.119Z,99.95
2017-02-26T07:27:45.105Z,99.95
2017-02-26T07:28:45.092Z,99.85
2017-02-26T07:29:45.065Z,99.95
2017-02-26T07:30:45.054Z,99.76
2017-02-26T07:31:45.057Z,99.76
2017-02-26T07:32:45.023Z,99.85
2017-02-26T07:33:45.009Z,99.99
2017-02-26T07:34:44.983Z,99.66
2017-02-26T07:35:44.971Z,99.48
2017-02-26T07:36:44.954Z,99.66
2017-02-26T07:37:44.956Z,99.48
2017-02-26T07:38:44.927Z,99.8
2017-02-26T07:39:44.922Z,99.66
2017-02-26T07:40:44.891Z,99.62
2017-02-26T07:41:44.889Z,99.76
2017-02-26T07:42:44.489Z,99.62
2017-02-26T07:43:44.465Z,99.62
2017-02-26T07:44:44.450Z,99.24
2017-02-26T07:45:44.441Z,98.96
2017-02-26T07:46:44.814Z,99.71
2017-02-26T07:47:44.800Z,99.9
2017-02-26T07:48:44.770Z,99.62
2017-02-26T07:49:44.768Z,99.24
2017-02-26T07:50:44.752Z,99.52
2017-02-26T07:51:44.720Z,99.43
2017-02-26T07:52:44.713Z,99.15
2017-02-26T07:53:44.707Z,99.24
2017-02-26T07:54:44.692Z,99.33
2017-02-26T07:55:44.658Z,99.43
2017-02-26T07:56:44.661Z,99.33
2017-02-26T07:57:44.631Z,99.15
2017-02-26T07:58:44.628Z,99.05
2017-02-26T07:59:44.608Z,98.96
2017-02-26T08:00:44.587Z,99.24
2017-02-26T08:01:44.573Z,99.19
2017-02-26T08:02:44.550Z,99.19
2017-02-26T08:03:44.558Z,98.58
2017-02-26T08:04:44.526Z,98.91
2017-02-26T08:05:44.515Z,98.86
2017-02-26T08:06:44.501Z,99.19
2017-02-26T08:07:44.476Z,99.01
2017-02-26T08:08:44.083Z,99.01
2017-02-26T08:09:44.072Z,99.01
2017-02-26T08:10:44.444Z,99.1
2017-02-26T08:11:44.427Z,98.91
2017-02-26T08:12:44.411Z,98.82
2017-02-26T08:13:44.396Z,98.82
2017-02-26T08:14:43.996Z,99.1
2017-02-26T08:15:43.980Z,98.25
2017-02-26T08:16:44.342Z,98.72
2017-02-26T08:17:44.338Z,98.63
2017-02-26T08:18:44.324Z,98.91
2017-02-26T08:19:43.907Z,98.72
2017-02-26T08:20:44.303Z,98.72
2017-02-26T08:21:44.284Z,98.72
2017-02-26T08:22:44.266Z,98.91
2017-02-26T08:23:44.250Z,98.72
2017-02-26T08:24:44.236Z,98.06
2017-02-26T08:25:44.212Z,98.15
2017-02-26T08:26:44.214Z,98.72
2017-02-26T08:27:44.178Z,98.63
2017-02-26T08:28:44.165Z,98.72
2017-02-26T08:29:44.162Z,98.72
2017-02-26T08:30:44.155Z,98.82
2017-02-26T08:31:44.134Z,98.25
2017-02-26T08:32:44.119Z,98.3
2017-02-26T08:33:44.093Z,98.68
2017-02-26T08:34:44.082Z,98.25
2017-02-26T08:35:44.066Z,98.34
2017-02-26T08:36:44.067Z,98.53
2017-02-26T08:37:44.041Z,98.34
2017-02-26T08:38:44.027Z,98.2
2017-02-26T08:39:44.008Z,98.11
2017-02-26T08:40:43.609Z,98.3
2017-02-26T08:41:43.599Z,98.3
2017-02-26T08:42:43.974Z,98.2
2017-02-26T08:43:43.951Z,98.11
2017-02-26T08:44:43.935Z,98.3
2017-02-26T08:45:43.946Z,98.2
2017-02-26T08:46:43.920Z,98.01
2017-02-26T08:47:43.903Z,98.11
2017-02-26T08:48:43.883Z,98.3
2017-02-26T08:49:43.871Z,97.96
2017-02-26T08:50:43.876Z,98.25
2017-02-26T08:51:43.457Z,98.2
2017-02-26T08:52:43.450Z,97.92
2017-02-26T08:53:43.435Z,97.73
2017-02-26T08:54:43.415Z,97.63
2017-02-26T08:55:43.401Z,97.58
2017-02-26T08:56:43.395Z,97.73
2017-02-26T08:57:43.761Z,97.96
2017-02-26T08:58:43.777Z,97.68
2017-02-26T08:59:43.747Z,97.92
2017-02-26T09:00:43.731Z,97.77
2017-02-26T09:01:43.710Z,98.01
2017-02-26T09:02:43.311Z,98.11
2017-02-26T09:03:43.690Z,97.44
2017-02-26T09:04:43.272Z,97.44
2017-02-26T09:05:43.686Z,97.63
2017-02-26T09:06:43.636Z,97.68
2017-02-26T09:07:43.614Z,97.87
2017-02-26T09:08:43.607Z,97.78
2017-02-26T09:09:43.584Z,97.82
2017-02-26T09:10:43.566Z,97.73
2017-02-26T09:11:43.555Z,97.73
2017-02-26T09:12:43.537Z,97.49
2017-02-26T09:13:43.540Z,97.45
2017-02-26T09:14:43.531Z,97.35
2017-02-26T09:15:43.499Z,97.26
2017-02-26T09:16:43.498Z,97.26
2017-02-26T09:17:43.484Z,97.21
2017-02-26T09:18:43.462Z,97.11
2017-02-26T09:19:43.464Z,97.3
2017-02-26T09:20:43.455Z,97.21
2017-02-26T09:21:43.428Z,97.64
2017-02-26T09:22:43.404Z,97.07
2017-02-26T09:23:43.396Z,96.78
2017-02-26T09:24:43.384Z,96.69
2017-02-26T09:25:43.369Z,96.55
2017-02-26T09:26:43.354Z,96.97
2017-02-26T09:27:43.361Z,96.78
2017-02-26T09:28:43.333Z,96.78
2017-02-26T09:29:43.309Z,96.78
2017-02-26T09:30:43.308Z,96.5
2017-02-26T09:31:43.289Z,96.59
2017-02-26T09:32:43.285Z,96.69
2017-02-26T09:33:43.260Z,96.69
2017-02-26T09:34:43.249Z,96.69
2017-02-26T09:35:43.228Z,97.16
2017-02-26T09:36:43.233Z,96.59
2017-02-26T09:37:43.196Z,97.06
2017-02-26T09:38:43.199Z,96.83
2017-02-26T09:39:43.179Z,96.69
2017-02-26T09:40:43.166Z,96.83
2017-02-26T09:41:43.153Z,96.83
2017-02-26T09:42:43.149Z,97.02
2017-02-26T09:43:43.133Z,96.73
2017-02-26T09:44:43.121Z,96.73
2017-02-26T09:45:43.115Z,96.59
2017-02-26T09:46:43.082Z,96.78
2017-02-26T09:47:43.065Z,96.97
2017-02-26T09:48:43.070Z,96.69
2017-02-26T09:49:43.039Z,96.92
2017-02-26T09:50:43.035Z,97.02
2017-02-26T09:51:43.013Z,96.07
2017-02-26T09:52:43.012Z,96.45
2017-02-26T09:53:43.000Z,96.17
2017-02-26T09:54:42.983Z,96.12
2017-02-26T09:55:42.572Z,96.12
2017-02-26T09:56:42.953Z,96.5
2017-02-26T09:57:42.943Z,96.5
2017-02-26T09:58:42.924Z,96.31
2017-02-26T09:59:42.904Z,96.31
2017-02-26T10:00:42.890Z,96.21
2017-02-26T10:01:42.884Z,96.5
2017-02-26T10:02:42.873Z,96.21
2017-02-26T10:03:42.854Z,96.21
2017-02-26T10:04:42.845Z,96.21
2017-02-26T10:05:42.818Z,96.21
2017-02-26T10:06:42.427Z,95.83
2017-02-26T10:07:42.803Z,96.12
2017-02-26T10:08:42.398Z,96.02
2017-02-26T10:09:42.400Z,96.07
2017-02-26T10:10:42.760Z,95.79
2017-02-26T10:11:42.746Z,95.64
2017-02-26T10:12:42.715Z,95.83
2017-02-26T10:13:42.705Z,95.93
2017-02-26T10:14:42.700Z,95.83
2017-02-26T10:15:42.302Z,95.74
2017-02-26T10:16:42.658Z,95.74
2017-02-26T10:17:42.657Z,96.02
2017-02-26T10:18:42.647Z,95.83
2017-02-26T10:19:42.618Z,95.41
2017-02-26T10:20:42.605Z,95.45
2017-02-26T10:21:42.213Z,95.36
2017-02-26T10:22:42.577Z,95.26
2017-02-26T10:23:42.568Z,95.26
2017-02-26T10:24:42.567Z,95.6
2017-02-26T10:25:42.538Z,95.6
2017-02-26T10:26:42.549Z,95.45
2017-02-26T10:27:42.523Z,95.26
2017-02-26T10:28:42.499Z,95.45
2017-02-26T10:29:42.483Z,94.89
2017-02-26T10:30:42.480Z,94.84
2017-02-26T10:31:42.470Z,95.21
2017-02-26T10:32:42.453Z,95.36
2017-02-26T10:33:42.439Z,95.07
2017-02-26T10:34:42.411Z,95.5
2017-02-26T10:35:42.413Z,95.5
2017-02-26T10:36:42.379Z,95.64
2017-02-26T10:37:42.379Z,95.5
2017-02-26T10:38:42.364Z,95.36
2017-02-26T10:39:42.339Z,95.64
2017-02-26T10:40:42.323Z,95.26
2017-02-26T10:41:42.324Z,95.26
2017-02-26T10:42:42.298Z,95.26
2017-02-26T10:43:42.296Z,94.89
2017-02-26T10:44:42.281Z,95.03
2017-02-26T10:45:42.266Z,94.98
2017-02-26T10:46:42.242Z,95.45
2017-02-26T10:47:42.228Z,95.17
2017-02-26T10:48:42.219Z,94.89
2017-02-26T10:49:42.199Z,94.7
2017-02-26T10:50:42.179Z,94.65
2017-02-26T10:51:42.179Z,94.89
2017-02-26T10:52:42.152Z,94.79
2017-02-26T10:53:42.149Z,94.89
2017-02-26T10:54:42.120Z,94.89
2017-02-26T10:55:42.110Z,94.98
2017-02-26T10:56:42.118Z,94.84
2017-02-26T10:57:41.703Z,94.93
2017-02-26T10:58:42.067Z,94.93
2017-02-26T10:59:42.051Z,95.03
2017-02-26T11:00:42.051Z,94.89
2017-02-26T11:01:42.032Z,95.17
2017-02-26T11:02:42.010Z,94.89
2017-02-26T11:03:41.999Z,95.12
2017-02-26T11:04:41.975Z,95.07
2017-02-26T11:05:41.974Z,94.89
2017-02-26T11:06:41.969Z,94.6
2017-02-26T11:07:41.951Z,94.56
2017-02-26T11:08:41.950Z,94.27
2017-02-26T11:09:41.930Z,93.99
2017-02-26T11:10:41.896Z,94.18
2017-02-26T11:11:41.501Z,94.27
2017-02-26T11:12:41.862Z,94.18
2017-02-26T11:13:41.859Z,94.08
2017-02-26T11:14:41.860Z,94.27
2017-02-26T11:15:41.832Z,94.27
2017-02-26T11:16:41.815Z,94.08
2017-02-26T11:17:41.804Z,94.27
2017-02-26T11:18:41.785Z,94.18
2017-02-26T11:19:41.773Z,94.27
2017-02-26T11:20:41.754Z,94.42
2017-02-26T11:21:41.729Z,94.42
2017-02-26T11:22:41.720Z,94.56
2017-02-26T11:23:41.717Z,94.79
2017-02-26T11:24:41.690Z,94.6
2017-02-26T11:25:41.683Z,94.6
2017-02-26T11:26:41.656Z,94.51
2017-02-26T11:27:41.264Z,94.13
2017-02-26T11:28:41.651Z,94.7
2017-02-26T11:29:41.629Z,94.42
2017-02-26T11:30:41.598Z,94.23
2017-02-26T11:31:41.624Z,94.6
2017-02-26T11:32:41.585Z,94.13
2017-02-26T11:33:41.565Z,94.32
2017-02-26T11:34:41.553Z,94.18
2017-02-26T11:35:41.549Z,94.04
2017-02-26T11:36:41.544Z,94.18
2017-02-26T11:37:41.509Z,93.8
2017-02-26T11:38:41.493Z,94.08
2017-02-26T11:39:41.465Z,93.84
2017-02-26T11:40:41.467Z,93.89
2017-02-26T11:41:41.450Z,93.89
2017-02-26T11:42:41.439Z,94.08
2017-02-26T11:43:41.408Z,94.08
2017-02-26T11:44:41.401Z,93.89
2017-02-26T11:45:41.391Z,93.85
2017-02-26T11:46:41.361Z,93.56
2017-02-26T11:47:41.357Z,93.56
2017-02-26T11:48:41.333Z,93.56
2017-02-26T11:49:41.330Z,93.85
2017-02-26T11:50:41.326Z,93.75
2017-02-26T11:51:41.305Z,93.75
2017-02-26T11:52:41.279Z,93.32
2017-02-26T11:53:41.257Z,93.32
2017-02-26T11:54:41.247Z,93.8
2017-02-26T11:55:41.219Z,93.37
2017-02-26T11:56:41.214Z,93.28
2017-02-26T11:57:41.206Z,93.37
2017-02-26T11:58:41.200Z,93.66
2017-02-26T11:59:41.168Z,93.37
2017-02-26T12:00:41.158Z,93.51
2017-02-26T12:01:41.127Z,93.47
2017-02-26T12:02:41.107Z,93.7
2017-02-26T12:03:41.108Z,93.8
2017-02-26T12:04:41.098Z,93.56
2017-02-26T12:05:41.062Z,93.75
2017-02-26T12:06:41.059Z,93.8
2017-02-26T12:07:41.033Z,93.99
2017-02-26T12:08:41.038Z,93.32
2017-02-26T12:09:41.022Z,93.61
2017-02-26T12:10:41.004Z,93.37
2017-02-26T12:11:40.977Z,93.37
2017-02-26T12:12:40.980Z,93.42
2017-02-26T12:13:40.947Z,93.04
2017-02-26T12:14:40.935Z,92.99
2017-02-26T12:15:40.941Z,93.66
2017-02-26T12:16:40.907Z,93.85
2017-02-26T12:17:40.903Z,94.13
2017-02-26T12:18:40.871Z,94.42
2017-02-26T12:19:40.865Z,94.79
2017-02-26T12:20:40.839Z,94.65
2017-02-26T12:21:40.834Z,94.93
2017-02-26T12:22:40.830Z,94.74
2017-02-26T12:23:40.820Z,94.93
2017-02-26T12:24:40.783Z,94.84
2017-02-26T12:25:40.791Z,95.03
2017-02-26T12:26:40.782Z,94.89
2017-02-26T12:27:40.737Z,94.98
2017-02-26T12:28:40.728Z,94.79
2017-02-26T12:29:40.705Z,94.7
2017-02-26T12:30:40.704Z,94.93
2017-02-26T12:31:40.688Z,94.93
2017-02-26T12:32:40.664Z,94.93
2017-02-26T12:33:40.663Z,94.84
2017-02-26T12:34:40.632Z,94.93
2017-02-26T12:35:40.628Z,94.79
2017-02-26T12:36:40.618Z,94.7
2017-02-26T12:37:40.207Z,94.23
2017-02-26T12:38:40.587Z,94.32
2017-02-26T12:39:40.571Z,94.27
2017-02-26T12:40:40.554Z,94.27
2017-02-26T12:41:40.538Z,94.18
2017-02-26T12:42:40.516Z,94.18
2017-02-26T12:43:40.512Z,93.89
2017-02-26T12:44:40.488Z,94.23
2017-02-26T12:45:40.472Z,94.23
2017-02-26T12:46:40.471Z,94.46
2017-02-26T12:47:40.436Z,94.27
2017-02-26T12:48:40.433Z,94.08
2017-02-26T12:49:40.413Z,94.08
2017-02-26T12:50:40.406Z,93.99
2017-02-26T12:51:40.387Z,93.94
2017-02-26T12:52:40.368Z,93.61
2017-02-26T12:53:40.376Z,93.56
2017-02-26T12:54:40.346Z,93.56